sensor_id;sensor_type;location;lat;lon;timestamp;P1;durP1;ratioP1;P2;durP2;ratioP2
2944;SDS011;1482;51.398;7.128;2022-10-15T00:00:49;21.90;;;15.10;;
2944;SDS011;1482;51.398;7.128;2022-10-15T00:03:15;17.47;;;14.83;;
2944;SDS011;1482;51.398;7.128;2022-10-15T00:05:40;15.03;;;13.33;;
2944;SDS011;1482;51.398;7.128;2022-10-15T00:08:06;15.40;;;13.70;;
2944;SDS011;1482;51.398;7.128;2022-10-15T00:10:34;16.43;;;13.60;;
2944;SDS011;1482;51.398;7.128;2022-10-15T00:13:00;16.33;;;14.03;;
2944;SDS011;1482;51.398;7.128;2022-10-15T00:15:25;21.20;;;14.40;;
2944;SDS011;1482;51.398;7.128;2022-10-15T00:17:51;16.03;;;14.07;;
2944;SDS011;1482;51.398;7.128;2022-10-15T00:20:17;16.97;;;14.10;;
2944;SDS011;1482;51.398;7.128;2022-10-15T00:22:43;16.67;;;14.93;;
2944;SDS011;1482;51.398;7.128;2022-10-15T00:25:09;20.53;;;14.63;;
2944;SDS011;1482;51.398;7.128;2022-10-15T00:27:34;16.53;;;12.97;;
2944;SDS011;1482;51.398;7.128;2022-10-15T00:30:00;17.43;;;14.30;;
2944;SDS011;1482;51.398;7.128;2022-10-15T00:32:27;16.50;;;14.07;;
2944;SDS011;1482;51.398;7.128;2022-10-15T00:34:53;22.30;;;16.20;;
2944;SDS011;1482;51.398;7.128;2022-10-15T00:37:19;18.00;;;15.20;;
2944;SDS011;1482;51.398;7.128;2022-10-15T00:39:45;20.27;;;17.00;;
2944;SDS011;1482;51.398;7.128;2022-10-15T00:42:11;21.53;;;15.37;;
2944;SDS011;1482;51.398;7.128;2022-10-15T00:47:15;18.43;;;16.20;;
2944;SDS011;1482;51.398;7.128;2022-10-15T00:49:54;20.17;;;16.17;;
2944;SDS011;1482;51.398;7.128;2022-10-15T00:52:41;18.13;;;15.90;;
2944;SDS011;1482;51.398;7.128;2022-10-15T00:55:21;17.67;;;14.80;;
2944;SDS011;1482;51.398;7.128;2022-10-15T00:57:52;18.80;;;14.23;;
2944;SDS011;1482;51.398;7.128;2022-10-15T01:00:19;18.40;;;15.63;;
2944;SDS011;1482;51.398;7.128;2022-10-15T01:02:45;22.90;;;15.30;;
2944;SDS011;1482;51.398;7.128;2022-10-15T01:05:11;20.30;;;16.13;;
2944;SDS011;1482;51.398;7.128;2022-10-15T01:07:39;19.20;;;16.63;;
2944;SDS011;1482;51.398;7.128;2022-10-15T01:10:04;19.30;;;16.80;;
2944;SDS011;1482;51.398;7.128;2022-10-15T01:12:36;21.00;;;17.80;;
2944;SDS011;1482;51.398;7.128;2022-10-15T01:17:43;33.30;;;19.13;;
2944;SDS011;1482;51.398;7.128;2022-10-15T01:31:52;19.93;;;16.83;;
2944;SDS011;1482;51.398;7.128;2022-10-15T01:39:31;21.93;;;17.73;;
2944;SDS011;1482;51.398;7.128;2022-10-15T01:42:03;23.67;;;17.10;;
2944;SDS011;1482;51.398;7.128;2022-10-15T01:44:52;22.90;;;17.63;;
2944;SDS011;1482;51.398;7.128;2022-10-15T01:47:39;22.10;;;18.23;;
2944;SDS011;1482;51.398;7.128;2022-10-15T01:50:10;26.20;;;18.10;;
2944;SDS011;1482;51.398;7.128;2022-10-15T01:52:37;25.47;;;19.00;;
2944;SDS011;1482;51.398;7.128;2022-10-15T01:55:04;25.53;;;19.73;;
2944;SDS011;1482;51.398;7.128;2022-10-15T01:57:33;26.33;;;20.37;;
2944;SDS011;1482;51.398;7.128;2022-10-15T02:00:00;27.87;;;21.00;;
2944;SDS011;1482;51.398;7.128;2022-10-15T02:02:27;27.97;;;20.50;;
2944;SDS011;1482;51.398;7.128;2022-10-15T02:04:53;25.73;;;20.50;;
2944;SDS011;1482;51.398;7.128;2022-10-15T02:10:30;25.97;;;21.57;;
2944;SDS011;1482;51.398;7.128;2022-10-15T02:20:58;35.77;;;23.43;;
2944;SDS011;1482;51.398;7.128;2022-10-15T02:26:18;30.03;;;21.90;;
2944;SDS011;1482;51.398;7.128;2022-10-15T02:28:47;33.53;;;23.27;;
2944;SDS011;1482;51.398;7.128;2022-10-15T02:31:16;29.27;;;24.40;;
2944;SDS011;1482;51.398;7.128;2022-10-15T02:33:44;29.17;;;22.53;;
2944;SDS011;1482;51.398;7.128;2022-10-15T02:36:11;32.63;;;23.30;;
2944;SDS011;1482;51.398;7.128;2022-10-15T02:38:37;33.93;;;24.00;;
2944;SDS011;1482;51.398;7.128;2022-10-15T02:41:06;35.83;;;24.80;;
2944;SDS011;1482;51.398;7.128;2022-10-15T02:43:33;33.10;;;23.53;;
2944;SDS011;1482;51.398;7.128;2022-10-15T02:46:00;36.80;;;25.13;;
2944;SDS011;1482;51.398;7.128;2022-10-15T02:48:25;33.90;;;25.80;;
2944;SDS011;1482;51.398;7.128;2022-10-15T02:50:51;38.00;;;24.93;;
2944;SDS011;1482;51.398;7.128;2022-10-15T02:53:16;38.03;;;25.80;;
2944;SDS011;1482;51.398;7.128;2022-10-15T02:55:42;44.27;;;28.83;;
2944;SDS011;1482;51.398;7.128;2022-10-15T02:58:08;35.13;;;26.10;;
2944;SDS011;1482;51.398;7.128;2022-10-15T03:00:33;39.13;;;28.00;;
2944;SDS011;1482;51.398;7.128;2022-10-15T03:02:59;44.00;;;27.23;;
2944;SDS011;1482;51.398;7.128;2022-10-15T03:05:24;42.90;;;29.57;;
2944;SDS011;1482;51.398;7.128;2022-10-15T03:07:50;40.27;;;29.80;;
2944;SDS011;1482;51.398;7.128;2022-10-15T03:10:16;38.77;;;28.80;;
2944;SDS011;1482;51.398;7.128;2022-10-15T03:12:41;43.40;;;29.13;;
2944;SDS011;1482;51.398;7.128;2022-10-15T03:15:07;34.83;;;27.27;;
2944;SDS011;1482;51.398;7.128;2022-10-15T03:17:33;39.63;;;29.00;;
2944;SDS011;1482;51.398;7.128;2022-10-15T03:19:59;37.43;;;26.90;;
2944;SDS011;1482;51.398;7.128;2022-10-15T03:22:24;39.57;;;27.50;;
2944;SDS011;1482;51.398;7.128;2022-10-15T03:24:50;37.80;;;27.30;;
2944;SDS011;1482;51.398;7.128;2022-10-15T03:27:16;41.07;;;27.60;;
2944;SDS011;1482;51.398;7.128;2022-10-15T03:29:41;36.67;;;28.47;;
2944;SDS011;1482;51.398;7.128;2022-10-15T03:32:07;41.93;;;27.40;;
2944;SDS011;1482;51.398;7.128;2022-10-15T03:34:32;39.90;;;28.50;;
2944;SDS011;1482;51.398;7.128;2022-10-15T03:36:58;39.33;;;27.00;;
2944;SDS011;1482;51.398;7.128;2022-10-15T03:39:23;37.33;;;27.30;;
2944;SDS011;1482;51.398;7.128;2022-10-15T03:41:51;38.33;;;26.57;;
2944;SDS011;1482;51.398;7.128;2022-10-15T03:44:17;44.57;;;31.13;;
2944;SDS011;1482;51.398;7.128;2022-10-15T03:46:43;37.97;;;28.80;;
2944;SDS011;1482;51.398;7.128;2022-10-15T03:49:09;41.97;;;30.30;;
2944;SDS011;1482;51.398;7.128;2022-10-15T03:51:34;43.50;;;27.87;;
2944;SDS011;1482;51.398;7.128;2022-10-15T03:54:00;40.70;;;30.00;;
2944;SDS011;1482;51.398;7.128;2022-10-15T03:56:26;43.33;;;29.07;;
2944;SDS011;1482;51.398;7.128;2022-10-15T03:58:51;40.53;;;29.80;;
2944;SDS011;1482;51.398;7.128;2022-10-15T04:01:17;47.57;;;31.03;;
2944;SDS011;1482;51.398;7.128;2022-10-15T04:03:43;47.83;;;31.27;;
2944;SDS011;1482;51.398;7.128;2022-10-15T04:06:08;51.40;;;33.27;;
2944;SDS011;1482;51.398;7.128;2022-10-15T04:08:34;42.37;;;30.40;;
2944;SDS011;1482;51.398;7.128;2022-10-15T04:11:00;39.80;;;30.30;;
2944;SDS011;1482;51.398;7.128;2022-10-15T04:13:26;52.00;;;32.83;;
2944;SDS011;1482;51.398;7.128;2022-10-15T04:15:52;46.80;;;32.63;;
2944;SDS011;1482;51.398;7.128;2022-10-15T04:18:18;45.50;;;30.90;;
2944;SDS011;1482;51.398;7.128;2022-10-15T04:20:46;54.30;;;36.10;;
2944;SDS011;1482;51.398;7.128;2022-10-15T04:23:12;52.30;;;34.43;;
2944;SDS011;1482;51.398;7.128;2022-10-15T04:25:38;50.87;;;34.80;;
2944;SDS011;1482;51.398;7.128;2022-10-15T04:28:04;60.20;;;37.60;;
2944;SDS011;1482;51.398;7.128;2022-10-15T04:30:30;58.40;;;37.57;;
2944;SDS011;1482;51.398;7.128;2022-10-15T04:32:55;63.23;;;38.33;;
2944;SDS011;1482;51.398;7.128;2022-10-15T04:35:21;58.63;;;39.67;;
2944;SDS011;1482;51.398;7.128;2022-10-15T04:37:46;57.90;;;38.63;;
2944;SDS011;1482;51.398;7.128;2022-10-15T04:40:12;54.70;;;37.33;;
2944;SDS011;1482;51.398;7.128;2022-10-15T04:42:38;57.73;;;35.83;;
2944;SDS011;1482;51.398;7.128;2022-10-15T04:45:06;53.80;;;35.20;;
2944;SDS011;1482;51.398;7.128;2022-10-15T04:47:32;54.97;;;35.10;;
2944;SDS011;1482;51.398;7.128;2022-10-15T04:49:57;56.43;;;34.37;;
2944;SDS011;1482;51.398;7.128;2022-10-15T04:52:23;49.03;;;32.40;;
2944;SDS011;1482;51.398;7.128;2022-10-15T04:54:49;53.07;;;33.33;;
2944;SDS011;1482;51.398;7.128;2022-10-15T04:57:14;52.60;;;32.73;;
2944;SDS011;1482;51.398;7.128;2022-10-15T04:59:40;47.00;;;31.70;;
2944;SDS011;1482;51.398;7.128;2022-10-15T05:02:06;46.27;;;31.70;;
2944;SDS011;1482;51.398;7.128;2022-10-15T05:04:31;43.20;;;30.97;;
2944;SDS011;1482;51.398;7.128;2022-10-15T05:06:57;42.83;;;30.37;;
2944;SDS011;1482;51.398;7.128;2022-10-15T05:09:23;45.83;;;31.10;;
2944;SDS011;1482;51.398;7.128;2022-10-15T05:11:49;44.07;;;31.17;;
2944;SDS011;1482;51.398;7.128;2022-10-15T05:14:14;44.70;;;31.10;;
2944;SDS011;1482;51.398;7.128;2022-10-15T05:16:42;44.03;;;31.90;;
2944;SDS011;1482;51.398;7.128;2022-10-15T05:19:11;53.37;;;32.07;;
2944;SDS011;1482;51.398;7.128;2022-10-15T05:21:36;48.23;;;33.43;;
2944;SDS011;1482;51.398;7.128;2022-10-15T05:24:03;40.83;;;31.43;;
2944;SDS011;1482;51.398;7.128;2022-10-15T05:26:29;38.87;;;30.83;;
2944;SDS011;1482;51.398;7.128;2022-10-15T05:28:56;42.13;;;31.20;;
2944;SDS011;1482;51.398;7.128;2022-10-15T05:31:23;37.60;;;29.87;;
2944;SDS011;1482;51.398;7.128;2022-10-15T05:33:52;42.93;;;33.10;;
2944;SDS011;1482;51.398;7.128;2022-10-15T05:38:56;47.57;;;33.17;;
2944;SDS011;1482;51.398;7.128;2022-10-15T05:41:24;45.33;;;33.07;;
2944;SDS011;1482;51.398;7.128;2022-10-15T05:43:51;44.10;;;34.00;;
2944;SDS011;1482;51.398;7.128;2022-10-15T05:46:18;45.70;;;32.30;;
2944;SDS011;1482;51.398;7.128;2022-10-15T05:48:51;43.00;;;33.73;;
2944;SDS011;1482;51.398;7.128;2022-10-15T05:51:17;45.83;;;34.73;;
2944;SDS011;1482;51.398;7.128;2022-10-15T05:53:43;47.60;;;34.77;;
2944;SDS011;1482;51.398;7.128;2022-10-15T05:56:10;46.73;;;34.40;;
2944;SDS011;1482;51.398;7.128;2022-10-15T05:58:37;48.60;;;34.70;;
2944;SDS011;1482;51.398;7.128;2022-10-15T06:01:03;48.50;;;34.10;;
2944;SDS011;1482;51.398;7.128;2022-10-15T06:03:31;48.23;;;34.67;;
2944;SDS011;1482;51.398;7.128;2022-10-15T06:05:56;52.30;;;36.40;;
2944;SDS011;1482;51.398;7.128;2022-10-15T06:08:22;48.37;;;33.50;;
2944;SDS011;1482;51.398;7.128;2022-10-15T06:10:48;48.40;;;34.90;;
2944;SDS011;1482;51.398;7.128;2022-10-15T06:13:14;42.77;;;32.70;;
2944;SDS011;1482;51.398;7.128;2022-10-15T06:15:41;47.00;;;31.47;;
2944;SDS011;1482;51.398;7.128;2022-10-15T06:18:07;49.27;;;33.50;;
2944;SDS011;1482;51.398;7.128;2022-10-15T06:20:34;41.53;;;28.20;;
2944;SDS011;1482;51.398;7.128;2022-10-15T06:23:01;38.10;;;29.00;;
2944;SDS011;1482;51.398;7.128;2022-10-15T06:25:28;42.23;;;28.33;;
2944;SDS011;1482;51.398;7.128;2022-10-15T06:27:53;36.97;;;28.50;;
2944;SDS011;1482;51.398;7.128;2022-10-15T06:30:19;37.20;;;27.67;;
2944;SDS011;1482;51.398;7.128;2022-10-15T06:32:48;31.57;;;24.77;;
2944;SDS011;1482;51.398;7.128;2022-10-15T06:35:15;35.43;;;27.00;;
2944;SDS011;1482;51.398;7.128;2022-10-15T06:37:42;38.67;;;26.60;;
2944;SDS011;1482;51.398;7.128;2022-10-15T06:40:08;34.03;;;24.87;;
2944;SDS011;1482;51.398;7.128;2022-10-15T06:42:34;38.33;;;26.70;;
2944;SDS011;1482;51.398;7.128;2022-10-15T06:45:00;36.70;;;24.43;;
2944;SDS011;1482;51.398;7.128;2022-10-15T06:47:25;30.17;;;22.90;;
2944;SDS011;1482;51.398;7.128;2022-10-15T06:49:51;33.97;;;26.63;;
2944;SDS011;1482;51.398;7.128;2022-10-15T06:52:17;34.37;;;25.93;;
2944;SDS011;1482;51.398;7.128;2022-10-15T06:54:42;37.67;;;26.10;;
2944;SDS011;1482;51.398;7.128;2022-10-15T06:57:08;34.80;;;25.17;;
2944;SDS011;1482;51.398;7.128;2022-10-15T06:59:33;33.40;;;25.60;;
2944;SDS011;1482;51.398;7.128;2022-10-15T07:01:59;38.93;;;26.37;;
2944;SDS011;1482;51.398;7.128;2022-10-15T07:04:24;35.37;;;28.23;;
2944;SDS011;1482;51.398;7.128;2022-10-15T07:06:50;34.10;;;27.40;;
2944;SDS011;1482;51.398;7.128;2022-10-15T07:09:15;30.67;;;26.40;;
2944;SDS011;1482;51.398;7.128;2022-10-15T07:11:41;30.80;;;25.77;;
2944;SDS011;1482;51.398;7.128;2022-10-15T07:14:07;30.37;;;24.40;;
2944;SDS011;1482;51.398;7.128;2022-10-15T07:16:32;27.23;;;21.57;;
2944;SDS011;1482;51.398;7.128;2022-10-15T07:18:58;22.30;;;20.00;;
2944;SDS011;1482;51.398;7.128;2022-10-15T07:21:24;22.27;;;20.03;;
2944;SDS011;1482;51.398;7.128;2022-10-15T07:23:49;25.43;;;22.80;;
2944;SDS011;1482;51.398;7.128;2022-10-15T07:26:15;24.07;;;19.73;;
2944;SDS011;1482;51.398;7.128;2022-10-15T07:28:40;22.10;;;19.47;;
2944;SDS011;1482;51.398;7.128;2022-10-15T07:31:06;25.80;;;21.20;;
2944;SDS011;1482;51.398;7.128;2022-10-15T07:33:32;28.87;;;23.00;;
2944;SDS011;1482;51.398;7.128;2022-10-15T07:36:10;25.93;;;23.10;;
2944;SDS011;1482;51.398;7.128;2022-10-15T07:38:38;29.07;;;24.43;;
2944;SDS011;1482;51.398;7.128;2022-10-15T07:41:05;29.73;;;22.73;;
2944;SDS011;1482;51.398;7.128;2022-10-15T07:43:32;30.53;;;24.60;;
2944;SDS011;1482;51.398;7.128;2022-10-15T07:45:58;33.93;;;24.07;;
2944;SDS011;1482;51.398;7.128;2022-10-15T07:48:24;28.00;;;24.47;;
2944;SDS011;1482;51.398;7.128;2022-10-15T07:50:56;29.67;;;25.10;;
2944;SDS011;1482;51.398;7.128;2022-10-15T07:53:23;26.20;;;22.27;;
2944;SDS011;1482;51.398;7.128;2022-10-15T07:55:49;23.20;;;20.17;;
2944;SDS011;1482;51.398;7.128;2022-10-15T07:58:15;19.30;;;17.30;;
2944;SDS011;1482;51.398;7.128;2022-10-15T08:00:41;18.57;;;16.67;;
2944;SDS011;1482;51.398;7.128;2022-10-15T08:03:07;18.77;;;16.80;;
2944;SDS011;1482;51.398;7.128;2022-10-15T08:05:32;15.50;;;14.00;;
2944;SDS011;1482;51.398;7.128;2022-10-15T08:07:59;13.47;;;12.17;;
2944;SDS011;1482;51.398;7.128;2022-10-15T08:10:24;14.73;;;13.33;;
2944;SDS011;1482;51.398;7.128;2022-10-15T08:12:50;14.07;;;12.77;;
2944;SDS011;1482;51.398;7.128;2022-10-15T08:15:16;16.60;;;14.10;;
2944;SDS011;1482;51.398;7.128;2022-10-15T08:17:41;14.13;;;12.70;;
2944;SDS011;1482;51.398;7.128;2022-10-15T08:20:07;13.17;;;11.93;;
2944;SDS011;1482;51.398;7.128;2022-10-15T08:22:33;14.13;;;12.57;;
2944;SDS011;1482;51.398;7.128;2022-10-15T08:24:59;13.70;;;12.50;;
2944;SDS011;1482;51.398;7.128;2022-10-15T08:27:25;13.50;;;12.30;;
2944;SDS011;1482;51.398;7.128;2022-10-15T08:29:50;11.50;;;10.50;;
2944;SDS011;1482;51.398;7.128;2022-10-15T08:32:16;12.67;;;11.50;;
2944;SDS011;1482;51.398;7.128;2022-10-15T08:34:42;12.43;;;11.33;;
2944;SDS011;1482;51.398;7.128;2022-10-15T08:37:07;11.90;;;10.70;;
2944;SDS011;1482;51.398;7.128;2022-10-15T08:39:33;10.37;;;9.30;;
2944;SDS011;1482;51.398;7.128;2022-10-15T08:42:00;9.37;;;8.47;;
2944;SDS011;1482;51.398;7.128;2022-10-15T08:44:40;7.67;;;6.80;;
2944;SDS011;1482;51.398;7.128;2022-10-15T08:47:39;7.57;;;6.93;;
2944;SDS011;1482;51.398;7.128;2022-10-15T08:53:13;5.17;;;4.67;;
2944;SDS011;1482;51.398;7.128;2022-10-15T08:55:42;4.70;;;4.27;;
2944;SDS011;1482;51.398;7.128;2022-10-15T09:06:46;3.20;;;2.97;;
2944;SDS011;1482;51.398;7.128;2022-10-15T09:09:42;2.43;;;2.20;;
2944;SDS011;1482;51.398;7.128;2022-10-15T09:14:58;2.43;;;2.30;;
2944;SDS011;1482;51.398;7.128;2022-10-15T09:17:25;1.73;;;1.63;;
2944;SDS011;1482;51.398;7.128;2022-10-15T09:19:57;1.70;;;1.43;;
2944;SDS011;1482;51.398;7.128;2022-10-15T09:22:26;2.97;;;2.00;;
2944;SDS011;1482;51.398;7.128;2022-10-15T09:24:54;2.80;;;1.60;;
2944;SDS011;1482;51.398;7.128;2022-10-15T09:27:32;1.73;;;1.40;;
2944;SDS011;1482;51.398;7.128;2022-10-15T09:30:03;1.97;;;1.87;;
2944;SDS011;1482;51.398;7.128;2022-10-15T09:32:47;1.37;;;1.27;;
2944;SDS011;1482;51.398;7.128;2022-10-15T09:35:25;2.20;;;1.10;;
2944;SDS011;1482;51.398;7.128;2022-10-15T09:37:59;1.60;;;1.40;;
2944;SDS011;1482;51.398;7.128;2022-10-15T09:40:43;2.07;;;1.10;;
2944;SDS011;1482;51.398;7.128;2022-10-15T09:43:18;1.30;;;0.87;;
2944;SDS011;1482;51.398;7.128;2022-10-15T09:45:52;2.30;;;0.90;;
2944;SDS011;1482;51.398;7.128;2022-10-15T09:48:18;1.17;;;0.93;;
2944;SDS011;1482;51.398;7.128;2022-10-15T09:50:48;1.27;;;1.00;;
2944;SDS011;1482;51.398;7.128;2022-10-15T09:53:26;1.10;;;0.90;;
2944;SDS011;1482;51.398;7.128;2022-10-15T09:56:15;1.30;;;1.13;;
2944;SDS011;1482;51.398;7.128;2022-10-15T09:58:54;1.10;;;1.00;;
2944;SDS011;1482;51.398;7.128;2022-10-15T10:01:21;2.80;;;1.53;;
2944;SDS011;1482;51.398;7.128;2022-10-15T10:06:52;1.40;;;1.23;;
2944;SDS011;1482;51.398;7.128;2022-10-15T10:09:21;6.70;;;1.20;;
2944;SDS011;1482;51.398;7.128;2022-10-15T10:11:57;1.47;;;1.23;;
2944;SDS011;1482;51.398;7.128;2022-10-15T10:19:42;2.30;;;1.10;;
2944;SDS011;1482;51.398;7.128;2022-10-15T10:22:17;1.70;;;1.00;;
2944;SDS011;1482;51.398;7.128;2022-10-15T10:24:44;1.70;;;1.00;;
2944;SDS011;1482;51.398;7.128;2022-10-15T10:27:16;1.50;;;0.90;;
2944;SDS011;1482;51.398;7.128;2022-10-15T10:29:48;1.23;;;1.13;;
2944;SDS011;1482;51.398;7.128;2022-10-15T10:32:28;1.27;;;1.10;;
2944;SDS011;1482;51.398;7.128;2022-10-15T10:34:56;1.50;;;0.80;;
2944;SDS011;1482;51.398;7.128;2022-10-15T10:37:24;1.20;;;1.10;;
2944;SDS011;1482;51.398;7.128;2022-10-15T10:39:57;1.10;;;0.80;;
2944;SDS011;1482;51.398;7.128;2022-10-15T10:42:31;1.37;;;1.03;;
2944;SDS011;1482;51.398;7.128;2022-10-15T10:45:15;1.43;;;1.33;;
2944;SDS011;1482;51.398;7.128;2022-10-15T10:47:49;1.00;;;0.87;;
2944;SDS011;1482;51.398;7.128;2022-10-15T10:50:28;1.00;;;0.90;;
2944;SDS011;1482;51.398;7.128;2022-10-15T10:53:19;1.10;;;0.97;;
2944;SDS011;1482;51.398;7.128;2022-10-15T10:55:50;1.73;;;0.93;;
2944;SDS011;1482;51.398;7.128;2022-10-15T10:58:19;1.20;;;1.10;;
2944;SDS011;1482;51.398;7.128;2022-10-15T11:00:48;2.27;;;1.00;;
2944;SDS011;1482;51.398;7.128;2022-10-15T11:03:30;1.90;;;1.27;;
2944;SDS011;1482;51.398;7.128;2022-10-15T11:28:17;2.50;;;1.40;;
2944;SDS011;1482;51.398;7.128;2022-10-15T11:31:01;1.10;;;1.00;;
2944;SDS011;1482;51.398;7.128;2022-10-15T11:44:29;3.20;;;0.90;;
2944;SDS011;1482;51.398;7.128;2022-10-15T11:47:10;1.87;;;1.10;;
2944;SDS011;1482;51.398;7.128;2022-10-15T11:49:53;1.63;;;0.93;;
2944;SDS011;1482;51.398;7.128;2022-10-15T11:52:46;1.30;;;1.20;;
2944;SDS011;1482;51.398;7.128;2022-10-15T11:57:43;1.10;;;1.00;;
2944;SDS011;1482;51.398;7.128;2022-10-15T12:02:54;1.30;;;1.20;;
2944;SDS011;1482;51.398;7.128;2022-10-15T12:05:27;1.37;;;1.27;;
2944;SDS011;1482;51.398;7.128;2022-10-15T12:08:02;5.23;;;1.30;;
2944;SDS011;1482;51.398;7.128;2022-10-15T12:15:34;2.40;;;1.10;;
2944;SDS011;1482;51.398;7.128;2022-10-15T12:18:19;1.07;;;0.93;;
2944;SDS011;1482;51.398;7.128;2022-10-15T12:20:47;1.73;;;1.13;;
2944;SDS011;1482;51.398;7.128;2022-10-15T12:23:23;2.30;;;1.30;;
2944;SDS011;1482;51.398;7.128;2022-10-15T12:26:48;1.13;;;1.03;;
2944;SDS011;1482;51.398;7.128;2022-10-15T12:28:52;1.47;;;1.17;;
2944;SDS011;1482;51.398;7.128;2022-10-15T12:31:19;1.30;;;1.07;;
2944;SDS011;1482;51.398;7.128;2022-10-15T12:36:27;2.83;;;1.00;;
2944;SDS011;1482;51.398;7.128;2022-10-15T12:38:59;1.40;;;1.10;;
2944;SDS011;1482;51.398;7.128;2022-10-15T12:44:07;1.47;;;1.00;;
2944;SDS011;1482;51.398;7.128;2022-10-15T12:46:43;2.67;;;1.20;;
2944;SDS011;1482;51.398;7.128;2022-10-15T12:51:55;2.57;;;1.00;;
2944;SDS011;1482;51.398;7.128;2022-10-15T12:54:32;2.30;;;1.30;;
2944;SDS011;1482;51.398;7.128;2022-10-15T12:59:55;3.20;;;1.17;;
2944;SDS011;1482;51.398;7.128;2022-10-15T13:02:39;7.23;;;1.10;;
2944;SDS011;1482;51.398;7.128;2022-10-15T13:05:08;2.43;;;1.30;;
2944;SDS011;1482;51.398;7.128;2022-10-15T13:07:56;1.30;;;1.20;;
2944;SDS011;1482;51.398;7.128;2022-10-15T13:10:34;1.27;;;1.17;;
2944;SDS011;1482;51.398;7.128;2022-10-15T13:13:04;2.53;;;1.17;;
2944;SDS011;1482;51.398;7.128;2022-10-15T13:15:31;2.10;;;1.10;;
2944;SDS011;1482;51.398;7.128;2022-10-15T13:17:59;1.70;;;1.23;;
2944;SDS011;1482;51.398;7.128;2022-10-15T13:20:39;1.10;;;0.97;;
2944;SDS011;1482;51.398;7.128;2022-10-15T13:23:15;2.30;;;1.10;;
2944;SDS011;1482;51.398;7.128;2022-10-15T13:25:43;2.13;;;1.13;;
2944;SDS011;1482;51.398;7.128;2022-10-15T13:28:28;1.30;;;1.20;;
2944;SDS011;1482;51.398;7.128;2022-10-15T13:30:55;1.30;;;0.90;;
2944;SDS011;1482;51.398;7.128;2022-10-15T13:33:22;1.40;;;1.20;;
2944;SDS011;1482;51.398;7.128;2022-10-15T13:35:51;1.60;;;1.50;;
2944;SDS011;1482;51.398;7.128;2022-10-15T13:38:23;1.67;;;1.20;;
2944;SDS011;1482;51.398;7.128;2022-10-15T13:40:51;2.60;;;1.10;;
2944;SDS011;1482;51.398;7.128;2022-10-15T13:43:19;3.73;;;1.57;;
2944;SDS011;1482;51.398;7.128;2022-10-15T13:45:58;5.67;;;1.10;;
2944;SDS011;1482;51.398;7.128;2022-10-15T13:48:26;1.27;;;1.17;;
2944;SDS011;1482;51.398;7.128;2022-10-15T13:50:54;1.93;;;1.17;;
2944;SDS011;1482;51.398;7.128;2022-10-15T13:53:25;2.13;;;1.40;;
2944;SDS011;1482;51.398;7.128;2022-10-15T13:55:53;3.57;;;1.17;;
2944;SDS011;1482;51.398;7.128;2022-10-15T13:58:28;1.37;;;1.27;;
2944;SDS011;1482;51.398;7.128;2022-10-15T14:03:37;1.60;;;1.50;;
2944;SDS011;1482;51.398;7.128;2022-10-15T14:06:24;2.90;;;1.20;;
2944;SDS011;1482;51.398;7.128;2022-10-15T14:08:55;1.30;;;1.20;;
2944;SDS011;1482;51.398;7.128;2022-10-15T14:11:22;1.57;;;1.47;;
2944;SDS011;1482;51.398;7.128;2022-10-15T14:13:49;2.53;;;1.20;;
2944;SDS011;1482;51.398;7.128;2022-10-15T14:16:20;4.00;;;2.50;;
2944;SDS011;1482;51.398;7.128;2022-10-15T14:19:13;1.57;;;1.43;;
2944;SDS011;1482;51.398;7.128;2022-10-15T14:21:45;3.30;;;1.30;;
2944;SDS011;1482;51.398;7.128;2022-10-15T14:24:17;2.50;;;1.10;;
2944;SDS011;1482;51.398;7.128;2022-10-15T14:26:45;1.67;;;1.57;;
2944;SDS011;1482;51.398;7.128;2022-10-15T14:29:25;2.20;;;1.70;;
2944;SDS011;1482;51.398;7.128;2022-10-15T14:31:53;1.23;;;1.13;;
2944;SDS011;1482;51.398;7.128;2022-10-15T14:34:35;1.50;;;1.40;;
2944;SDS011;1482;51.398;7.128;2022-10-15T14:42:42;1.70;;;1.60;;
2944;SDS011;1482;51.398;7.128;2022-10-15T14:47:42;1.67;;;1.57;;
2944;SDS011;1482;51.398;7.128;2022-10-15T14:50:11;1.60;;;1.50;;
2944;SDS011;1482;51.398;7.128;2022-10-15T14:52:37;5.83;;;1.70;;
2944;SDS011;1482;51.398;7.128;2022-10-15T14:55:18;1.67;;;1.43;;
2944;SDS011;1482;51.398;7.128;2022-10-15T14:58:06;1.67;;;1.57;;
2944;SDS011;1482;51.398;7.128;2022-10-15T15:00:43;1.97;;;1.57;;
2944;SDS011;1482;51.398;7.128;2022-10-15T15:03:16;1.83;;;1.73;;
2944;SDS011;1482;51.398;7.128;2022-10-15T15:05:44;2.77;;;1.47;;
2944;SDS011;1482;51.398;7.128;2022-10-15T15:08:16;1.77;;;1.67;;
2944;SDS011;1482;51.398;7.128;2022-10-15T15:10:42;1.73;;;1.60;;
2944;SDS011;1482;51.398;7.128;2022-10-15T15:13:10;1.87;;;1.70;;
2944;SDS011;1482;51.398;7.128;2022-10-15T15:15:43;1.50;;;1.40;;
2944;SDS011;1482;51.398;7.128;2022-10-15T15:18:09;3.90;;;2.10;;
2944;SDS011;1482;51.398;7.128;2022-10-15T15:20:35;2.00;;;1.90;;
2944;SDS011;1482;51.398;7.128;2022-10-15T15:23:03;2.90;;;1.93;;
2944;SDS011;1482;51.398;7.128;2022-10-15T15:25:30;3.33;;;1.97;;
2944;SDS011;1482;51.398;7.128;2022-10-15T15:27:58;3.43;;;1.60;;
2944;SDS011;1482;51.398;7.128;2022-10-15T15:30:25;1.80;;;1.27;;
2944;SDS011;1482;51.398;7.128;2022-10-15T15:32:55;6.73;;;2.43;;
2944;SDS011;1482;51.398;7.128;2022-10-15T15:35:23;15.73;;;4.17;;
2944;SDS011;1482;51.398;7.128;2022-10-15T15:37:55;3.40;;;2.87;;
2944;SDS011;1482;51.398;7.128;2022-10-15T15:40:21;1.97;;;1.77;;
2944;SDS011;1482;51.398;7.128;2022-10-15T15:42:47;2.00;;;1.63;;
2944;SDS011;1482;51.398;7.128;2022-10-15T15:45:19;5.20;;;1.60;;
2944;SDS011;1482;51.398;7.128;2022-10-15T15:47:46;3.07;;;2.40;;
2944;SDS011;1482;51.398;7.128;2022-10-15T15:50:13;3.50;;;3.20;;
2944;SDS011;1482;51.398;7.128;2022-10-15T15:52:39;2.33;;;2.13;;
2944;SDS011;1482;51.398;7.128;2022-10-15T15:55:05;2.40;;;1.93;;
2944;SDS011;1482;51.398;7.128;2022-10-15T15:57:31;1.80;;;1.67;;
2944;SDS011;1482;51.398;7.128;2022-10-15T15:59:57;2.13;;;1.90;;
2944;SDS011;1482;51.398;7.128;2022-10-15T16:02:22;2.90;;;2.23;;
2944;SDS011;1482;51.398;7.128;2022-10-15T16:04:48;2.13;;;1.83;;
2944;SDS011;1482;51.398;7.128;2022-10-15T16:07:13;1.83;;;1.73;;
2944;SDS011;1482;51.398;7.128;2022-10-15T16:09:39;1.93;;;1.77;;
2944;SDS011;1482;51.398;7.128;2022-10-15T16:12:04;1.83;;;1.73;;
2944;SDS011;1482;51.398;7.128;2022-10-15T16:14:30;1.67;;;1.57;;
2944;SDS011;1482;51.398;7.128;2022-10-15T16:16:56;1.83;;;1.73;;
2944;SDS011;1482;51.398;7.128;2022-10-15T16:19:22;1.97;;;1.77;;
2944;SDS011;1482;51.398;7.128;2022-10-15T16:21:48;2.20;;;2.10;;
2944;SDS011;1482;51.398;7.128;2022-10-15T16:24:13;1.90;;;1.77;;
2944;SDS011;1482;51.398;7.128;2022-10-15T16:26:39;2.30;;;2.20;;
2944;SDS011;1482;51.398;7.128;2022-10-15T16:29:05;2.40;;;2.20;;
2944;SDS011;1482;51.398;7.128;2022-10-15T16:31:30;3.93;;;2.30;;
2944;SDS011;1482;51.398;7.128;2022-10-15T16:34:00;2.23;;;2.13;;
2944;SDS011;1482;51.398;7.128;2022-10-15T16:36:26;5.10;;;2.63;;
2944;SDS011;1482;51.398;7.128;2022-10-15T16:38:52;3.70;;;3.40;;
2944;SDS011;1482;51.398;7.128;2022-10-15T16:41:18;2.93;;;2.73;;
2944;SDS011;1482;51.398;7.128;2022-10-15T16:43:44;2.80;;;2.60;;
2944;SDS011;1482;51.398;7.128;2022-10-15T16:46:11;4.20;;;3.20;;
2944;SDS011;1482;51.398;7.128;2022-10-15T16:48:37;3.20;;;3.00;;
2944;SDS011;1482;51.398;7.128;2022-10-15T16:51:06;4.00;;;3.73;;
2944;SDS011;1482;51.398;7.128;2022-10-15T16:53:34;3.33;;;3.13;;
2944;SDS011;1482;51.398;7.128;2022-10-15T16:56:02;3.53;;;3.10;;
2944;SDS011;1482;51.398;7.128;2022-10-15T16:58:32;5.73;;;3.63;;
2944;SDS011;1482;51.398;7.128;2022-10-15T17:00:58;3.37;;;3.17;;
2944;SDS011;1482;51.398;7.128;2022-10-15T17:03:25;3.63;;;3.33;;
2944;SDS011;1482;51.398;7.128;2022-10-15T17:05:57;7.50;;;4.17;;
2944;SDS011;1482;51.398;7.128;2022-10-15T17:08:26;3.83;;;3.53;;
2944;SDS011;1482;51.398;7.128;2022-10-15T17:11:20;4.00;;;3.70;;
2944;SDS011;1482;51.398;7.128;2022-10-15T17:14:10;4.60;;;4.20;;
2944;SDS011;1482;51.398;7.128;2022-10-15T17:16:38;3.67;;;3.43;;
2944;SDS011;1482;51.398;7.128;2022-10-15T17:19:09;5.03;;;4.67;;